Flag for Germany

Past Weather in 50°00'09"N, 8°39'15"E, Germany — Yesterday and Last 2 Weeks

Currently: 50 °F. Sunny. (Weather station: Frankfurt-M-Flughafen Airport, Germany). See more current weather

Past Weather in 50°00'09"N, 8°39'15"E — Graph

°F

50°00'09"N, 8°39'15"E Temperature Yesterday

Maximum temperature yesterday: 57 °F (at 2:50 pm)
Minimum temperature yesterday: 30 °F (at 7:50 am)
Average temperature yesterday: 43 °F

High & Low Weather Summary for the Past Weeks

 TemperatureHumidityPressure
High66 °F (Feb 23, 3:50 pm)100% (Feb 17, 10:20 pm)30.69 "Hg (Feb 17, 10:20 pm)
Low30 °F (Feb 18, 7:20 am)37% (Feb 25, 1:50 pm)29.83 "Hg (Feb 18, 6:50 pm)
Average44 °F77%30.32 "Hg
* Reported Feb 17 9:20 am — Mar 4 9:50 am, 50°00'09"N, 8°39'15"E. Weather by CustomWeather, © 2021

Note: Actual official high and low records may vary slightly from our data, if they occured in-between our weather recording intervals... More about our weather records

50°00'09"N, 8°39'15"E Weather History for the Previous 24 Hours

Scroll right to see more
 ConditionsComfort  
Time TempWeatherWind HumidityBarometerVisibility
9:50 am
Thu, Mar 4
48 °FSunny.6 mph66%30.09 "Hg10 mi
9:20 am46 °FSunny.6 mph71%30.12 "Hg10 mi
8:50 am45 °FSunny.3 mph76%30.12 "Hg10 mi
8:20 am41 °FSunny.5 mph81%30.12 "Hg10 mi
7:50 am41 °FPassing clouds.5 mph81%30.12 "HgN/A
7:20 am41 °FPassing clouds.6 mph81%30.12 "HgN/A
6:50 am39 °FPassing clouds.3 mph87%30.15 "HgN/A
6:20 am39 °FClear.1 mph87%30.15 "Hg10 mi
5:50 am39 °FClear.2 mph87%30.15 "Hg10 mi
5:20 am39 °FClear.5 mph87%30.15 "Hg10 mi
4:50 am41 °FClear.6 mph81%30.15 "Hg10 mi
4:20 am41 °FClear.5 mph87%30.15 "Hg10 mi
3:50 am41 °FClear.5 mph87%30.18 "Hg10 mi
3:20 am43 °FClear.5 mph81%30.18 "Hg10 mi
2:50 am41 °FClear.3 mph87%30.18 "Hg10 mi
2:20 am43 °FClear.5 mph81%30.21 "Hg10 mi
1:50 am43 °FClear.3 mph81%30.21 "Hg10 mi
1:20 am45 °FClear.3 mph76%30.21 "Hg10 mi
12:50 am45 °FClear.5 mph76%30.21 "Hg10 mi
12:20 am45 °FClear.5 mph76%30.24 "Hg10 mi
11:50 pm
Wed, Mar 3
43 °FClear.2 mph81%30.24 "Hg10 mi
11:20 pm43 °FClear.1 mph81%30.24 "Hg10 mi
10:50 pm45 °FClear.2 mph76%30.27 "Hg10 mi
10:20 pm45 °FClear.2 mph76%30.27 "Hg10 mi
9:50 pm43 °FClear.2 mph81%30.27 "Hg10 mi
9:20 pm43 °FPassing clouds.3 mph81%30.27 "HgN/A
8:50 pm43 °FPassing clouds.3 mph81%30.27 "HgN/A
8:20 pm45 °FClear.2 mph76%30.30 "Hg10 mi
7:50 pm46 °FClear.1 mph71%30.30 "Hg10 mi
7:20 pm48 °FClear.2 mph66%30.30 "Hg10 mi
6:50 pm48 °FClear.3 mph66%30.30 "Hg10 mi
6:20 pm52 °FClear.3 mph58%30.30 "Hg10 mi
5:50 pm54 °FSunny.3 mph54%30.30 "Hg10 mi
5:20 pm55 °FSunny.1 mph55%30.30 "Hg10 mi
4:50 pm55 °FSunny.5 mph55%30.30 "Hg10 mi
4:20 pm55 °FPassing clouds.7 mph55%30.33 "HgN/A
3:50 pm57 °FPassing clouds.6 mph48%30.33 "HgN/A
3:20 pm57 °FPassing clouds.6 mph48%30.33 "HgN/A
2:50 pm57 °FPassing clouds.8 mph48%30.33 "HgN/A
2:20 pm55 °FPassing clouds.5 mph51%30.36 "HgN/A
1:50 pm55 °FPassing clouds.5 mph51%30.36 "HgN/A
1:20 pm54 °FPassing clouds.3 mph54%30.39 "HgN/A
12:50 pm52 °FPassing clouds.5 mph58%30.39 "HgN/A
12:20 pm50 °FSunny.7 mph62%30.39 "Hg10 mi
11:50 am48 °FPassing clouds.6 mph66%30.42 "HgN/A
11:20 am45 °FSunny.1 mph76%30.42 "Hg10 mi
10:50 am43 °FSunny.2 mph76%30.42 "Hg10 mi
10:20 am41 °FSunny.3 mph81%30.42 "Hg10 mi
Weather by CustomWeather, © 2021

See weather overview